sensor_id;sensor_type;location;lat;lon;timestamp;pressure;altitude;pressure_sealevel;temperature;humidity
61880;BME280;47817;52.798;27.544;2022-10-31T00:04:31;1023.4;;;7.9;76.4
61880;BME280;47817;52.798;27.544;2022-10-31T00:09:03;1023.3;;;7.8;76.7
61880;BME280;47817;52.798;27.544;2022-10-31T00:13:49;1023.4;;;7.7;76.7
61880;BME280;47817;52.798;27.544;2022-10-31T00:19:09;1023.4;;;7.7;76.4
61880;BME280;47817;52.798;27.544;2022-10-31T00:24:31;1023.4;;;7.6;76.3
61880;BME280;47817;52.798;27.544;2022-10-31T00:29:07;1023.5;;;7.6;76.3
61880;BME280;47817;52.798;27.544;2022-10-31T00:34:17;1023.5;;;7.5;76.4
61880;BME280;47817;52.798;27.544;2022-10-31T00:39:07;1023.5;;;7.5;76.5
61880;BME280;47817;52.798;27.544;2022-10-31T00:44:19;1023.5;;;7.4;77.1
61880;BME280;47817;52.798;27.544;2022-10-31T00:49:09;1023.5;;;7.3;77.6
61880;BME280;47817;52.798;27.544;2022-10-31T00:54:17;1023.5;;;7.2;78
61880;BME280;47817;52.798;27.544;2022-10-31T00:59:01;1023.6;;;7.1;78.5
61880;BME280;47817;52.798;27.544;2022-10-31T01:04:05;1023.6;;;7.1;79
61880;BME280;47817;52.798;27.544;2022-10-31T01:09:31;1023.6;;;7;79.4
61880;BME280;47817;52.798;27.544;2022-10-31T01:14:31;1023.6;;;6.9;79.8
61880;BME280;47817;52.798;27.544;2022-10-31T01:19:31;1023.5;;;6.8;80.2
61880;BME280;47817;52.798;27.544;2022-10-31T01:24:17;1023.5;;;6.7;80.5
61880;BME280;47817;52.798;27.544;2022-10-31T01:28:59;1023.5;;;6.6;80.9
61880;BME280;47817;52.798;27.544;2022-10-31T01:34:13;1023.6;;;6.6;81
61880;BME280;47817;52.798;27.544;2022-10-31T01:39:33;1023.6;;;6.5;81.2
61880;BME280;47817;52.798;27.544;2022-10-31T01:43:50;1023.7;;;6.5;81.4
61880;BME280;47817;52.798;27.544;2022-10-31T01:49:20;1023.7;;;6.4;81.5
61880;BME280;47817;52.798;27.544;2022-10-31T01:54:01;1023.8;;;6.3;81.7
61880;BME280;47817;52.798;27.544;2022-10-31T01:59:35;1023.9;;;6.3;82
61880;BME280;47817;52.798;27.544;2022-10-31T02:04:01;1023.9;;;6.2;82.3
61880;BME280;47817;52.798;27.544;2022-10-31T02:09:19;1023.9;;;6.1;82.7
61880;BME280;47817;52.798;27.544;2022-10-31T02:14:21;1023.9;;;6;82.9
61880;BME280;47817;52.798;27.544;2022-10-31T02:19:01;1024;;;6;83.2
61880;BME280;47817;52.798;27.544;2022-10-31T02:24:40;1024;;;5.9;83.4
61880;BME280;47817;52.798;27.544;2022-10-31T02:29:53;1024.1;;;5.8;83.3
61880;BME280;47817;52.798;27.544;2022-10-31T02:34:34;1024.2;;;5.7;83.4
61880;BME280;47817;52.798;27.544;2022-10-31T02:39:08;1024.3;;;5.7;83.7
61880;BME280;47817;52.798;27.544;2022-10-31T02:44:03;1024.3;;;5.6;84
61880;BME280;47817;52.798;27.544;2022-10-31T02:49:15;1024.4;;;5.5;84.3
61880;BME280;47817;52.798;27.544;2022-10-31T02:54:33;1024.5;;;5.5;84.4
61880;BME280;47817;52.798;27.544;2022-10-31T02:59:01;1024.5;;;5.4;84.6
61880;BME280;47817;52.798;27.544;2022-10-31T03:04:29;1024.5;;;5.3;84.9
61880;BME280;47817;52.798;27.544;2022-10-31T03:08:50;1024.5;;;5.3;84.9
61880;BME280;47817;52.798;27.544;2022-10-31T03:14:37;1024.5;;;5.3;85
61880;BME280;47817;52.798;27.544;2022-10-31T03:19:14;1024.6;;;5.3;85.1
61880;BME280;47817;52.798;27.544;2022-10-31T03:24:19;1024.6;;;5.2;85.3
61880;BME280;47817;52.798;27.544;2022-10-31T03:29:21;1024.7;;;5.2;85.4
61880;BME280;47817;52.798;27.544;2022-10-31T03:34:21;1024.7;;;5.1;85.6
61880;BME280;47817;52.798;27.544;2022-10-31T03:39:35;1024.8;;;5.1;85.8
61880;BME280;47817;52.798;27.544;2022-10-31T03:44:35;1024.9;;;5;85.9
61880;BME280;47817;52.798;27.544;2022-10-31T03:49:35;1024.9;;;5;86.1
61880;BME280;47817;52.798;27.544;2022-10-31T03:54:36;1025;;;5;86
61880;BME280;47817;52.798;27.544;2022-10-31T03:58:59;1025.1;;;5;86.3
61880;BME280;47817;52.798;27.544;2022-10-31T04:04:13;1025.2;;;4.9;86.6
61880;BME280;47817;52.798;27.544;2022-10-31T04:09:35;1025.1;;;5;86.8
61880;BME280;47817;52.798;27.544;2022-10-31T04:14:09;1025.2;;;5;86.9
61880;BME280;47817;52.798;27.544;2022-10-31T04:19:21;1025.2;;;5;86.8
61880;BME280;47817;52.798;27.544;2022-10-31T04:23:49;1025.2;;;5;86.6
61880;BME280;47817;52.798;27.544;2022-10-31T04:29:35;1025.3;;;4.9;86.7
61880;BME280;47817;52.798;27.544;2022-10-31T04:33:49;1025.4;;;4.8;86.7
61880;BME280;47817;52.798;27.544;2022-10-31T04:39:19;1025.5;;;4.7;86.8
61880;BME280;47817;52.798;27.544;2022-10-31T04:44:23;1025.5;;;4.6;87.2
61880;BME280;47817;52.798;27.544;2022-10-31T04:48:49;1025.6;;;4.6;87.4
61880;BME280;47817;52.798;27.544;2022-10-31T04:54:35;1025.6;;;4.5;87.6
61880;BME280;47817;52.798;27.544;2022-10-31T04:59:33;1025.6;;;4.5;87.4
61880;BME280;47817;52.798;27.544;2022-10-31T05:04:35;1025.7;;;4.4;87.8
61880;BME280;47817;52.798;27.544;2022-10-31T05:09:09;1025.7;;;4.4;88
61880;BME280;47817;52.798;27.544;2022-10-31T05:14:01;1025.8;;;4.4;88.1
61880;BME280;47817;52.798;27.544;2022-10-31T05:19:13;1025.8;;;4.4;88.3
61880;BME280;47817;52.798;27.544;2022-10-31T05:24:35;1025.9;;;4.4;88.2
61880;BME280;47817;52.798;27.544;2022-10-31T05:29:33;1026;;;4.5;88.2
61880;BME280;47817;52.798;27.544;2022-10-31T05:33:51;1026.1;;;4.5;88.1
61880;BME280;47817;52.798;27.544;2022-10-31T05:39:01;1026.1;;;4.5;88.3
61880;BME280;47817;52.798;27.544;2022-10-31T05:44:35;1026.1;;;4.5;88.2
61880;BME280;47817;52.798;27.544;2022-10-31T05:48:49;1026.2;;;4.6;88.1
61880;BME280;47817;52.798;27.544;2022-10-31T05:54:21;1026.3;;;4.7;88
61880;BME280;47817;52.798;27.544;2022-10-31T05:59:25;1026.4;;;4.8;87.9
61880;BME280;47817;52.798;27.544;2022-10-31T06:03:49;1026.4;;;4.9;87.6
61880;BME280;47817;52.798;27.544;2022-10-31T06:09:35;1026.5;;;5;87.4
61880;BME280;47817;52.798;27.544;2022-10-31T06:14:23;1026.5;;;5.1;87.1
61880;BME280;47817;52.798;27.544;2022-10-31T06:19:25;1026.5;;;5.1;86.9
61880;BME280;47817;52.798;27.544;2022-10-31T06:24:09;1026.5;;;5.3;86.7
61880;BME280;47817;52.798;27.544;2022-10-31T06:29:01;1026.5;;;5.4;86.4
61880;BME280;47817;52.798;27.544;2022-10-31T06:34:13;1026.6;;;5.6;86
61880;BME280;47817;52.798;27.544;2022-10-31T06:39:33;1026.7;;;5.8;85.7
61880;BME280;47817;52.798;27.544;2022-10-31T06:43:57;1026.7;;;6.1;85.2
61880;BME280;47817;52.798;27.544;2022-10-31T06:49:21;1026.7;;;6.3;84.7
61880;BME280;47817;52.798;27.544;2022-10-31T06:53:49;1026.8;;;6.5;84
61880;BME280;47817;52.798;27.544;2022-10-31T06:59:37;1026.8;;;6.6;82.8
61880;BME280;47817;52.798;27.544;2022-10-31T07:04:13;1026.8;;;6.7;81.8
61880;BME280;47817;52.798;27.544;2022-10-31T07:09:21;1026.8;;;6.9;81.7
61880;BME280;47817;52.798;27.544;2022-10-31T07:14:25;1026.9;;;7;80.9
61880;BME280;47817;52.798;27.544;2022-10-31T07:19:01;1027;;;7.2;79.9
61880;BME280;47817;52.798;27.544;2022-10-31T07:24:37;1027;;;7.4;78.6
61880;BME280;47817;52.798;27.544;2022-10-31T07:29:37;1027.1;;;7.5;77
61880;BME280;47817;52.798;27.544;2022-10-31T07:34:37;1027.1;;;7.5;77.3
61880;BME280;47817;52.798;27.544;2022-10-31T07:39:09;1027;;;7.6;76.6
61880;BME280;47817;52.798;27.544;2022-10-31T07:43:49;1027.1;;;7.6;75
61880;BME280;47817;52.798;27.544;2022-10-31T07:49:13;1027.1;;;7.7;74.9
61880;BME280;47817;52.798;27.544;2022-10-31T07:54:35;1027.2;;;7.8;73.5
61880;BME280;47817;52.798;27.544;2022-10-31T07:58:57;1027.2;;;8;72.3
61880;BME280;47817;52.798;27.544;2022-10-31T08:04:23;1027.2;;;8;71.4
61880;BME280;47817;52.798;27.544;2022-10-31T08:09:13;1027.2;;;8.2;69.6
61880;BME280;47817;52.798;27.544;2022-10-31T08:14:37;1027.2;;;8.3;67.7
61880;BME280;47817;52.798;27.544;2022-10-31T08:19:01;1027.2;;;8.4;67
61880;BME280;47817;52.798;27.544;2022-10-31T08:24:09;1027.3;;;8.6;66
61880;BME280;47817;52.798;27.544;2022-10-31T08:29:23;1027.3;;;8.6;65.7
61880;BME280;47817;52.798;27.544;2022-10-31T08:34:01;1027.3;;;8.7;64.7
61880;BME280;47817;52.798;27.544;2022-10-31T08:38:49;1027.3;;;8.7;61.8
61880;BME280;47817;52.798;27.544;2022-10-31T08:44:25;1027.3;;;8.8;60.9
61880;BME280;47817;52.798;27.544;2022-10-31T08:49:11;1027.4;;;8.9;60.4
61880;BME280;47817;52.798;27.544;2022-10-31T08:54:35;1027.4;;;9;59.1
61880;BME280;47817;52.798;27.544;2022-10-31T08:59:01;1027.4;;;9.1;57.3
61880;BME280;47817;52.798;27.544;2022-10-31T09:04:11;1027.4;;;9.2;56.5
61880;BME280;47817;52.798;27.544;2022-10-31T09:09:13;1027.4;;;9.3;56
61880;BME280;47817;52.798;27.544;2022-10-31T09:14:37;1027.5;;;9.5;55.6
61880;BME280;47817;52.798;27.544;2022-10-31T09:19:37;1027.5;;;9.4;55.4
61880;BME280;47817;52.798;27.544;2022-10-31T09:24:01;1027.6;;;9.5;55.8
61880;BME280;47817;52.798;27.544;2022-10-31T09:29:01;1027.6;;;9.7;56.3
61880;BME280;47817;52.798;27.544;2022-10-31T09:34:25;1027.6;;;9.7;55.6
61880;BME280;47817;52.798;27.544;2022-10-31T09:39:25;1027.6;;;9.9;55.6
61880;BME280;47817;52.798;27.544;2022-10-31T09:44:12;1027.6;;;10;55.7
61880;BME280;47817;52.798;27.544;2022-10-31T09:48:52;1027.7;;;9.9;55.1
61880;BME280;47817;52.798;27.544;2022-10-31T09:54:02;1027.7;;;10;55.2
61880;BME280;47817;52.798;27.544;2022-10-31T09:59:15;1027.7;;;10;55.1
61880;BME280;47817;52.798;27.544;2022-10-31T10:03:50;1027.7;;;10.1;54.6
61880;BME280;47817;52.798;27.544;2022-10-31T10:09:37;1027.6;;;10.1;54.7
61880;BME280;47817;52.798;27.544;2022-10-31T10:14:29;1027.6;;;10.3;54.1
61880;BME280;47817;52.798;27.544;2022-10-31T10:19:04;1027.5;;;10.3;53.6
61880;BME280;47817;52.798;27.544;2022-10-31T10:24:17;1027.5;;;10.4;53.9
61880;BME280;47817;52.798;27.544;2022-10-31T10:29:17;1027.5;;;10.4;52.7
61880;BME280;47817;52.798;27.544;2022-10-31T10:34:38;1027.5;;;10.4;52.6
61880;BME280;47817;52.798;27.544;2022-10-31T10:39:11;1027.5;;;10.6;52.3
61880;BME280;47817;52.798;27.544;2022-10-31T10:44:01;1027.5;;;10.8;52.1
61880;BME280;47817;52.798;27.544;2022-10-31T10:49:26;1027.5;;;10.9;51.3
61880;BME280;47817;52.798;27.544;2022-10-31T10:54:59;1027.6;;;10.9;50.7
61880;BME280;47817;52.798;27.544;2022-10-31T10:59:09;1027.5;;;11.1;50.1
61880;BME280;47817;52.798;27.544;2022-10-31T11:03:49;1027.5;;;11.2;49
61880;BME280;47817;52.798;27.544;2022-10-31T11:08:57;1027.4;;;11.2;48.9
61880;BME280;47817;52.798;27.544;2022-10-31T11:14:15;1027.4;;;11.3;48.5
61880;BME280;47817;52.798;27.544;2022-10-31T11:19:13;1027.4;;;11.3;47.4
61880;BME280;47817;52.798;27.544;2022-10-31T11:24:37;1027.4;;;11.3;47.8
61880;BME280;47817;52.798;27.544;2022-10-31T11:29:25;1027.4;;;11.3;47.6
61880;BME280;47817;52.798;27.544;2022-10-31T11:33:49;1027.3;;;11.4;46.5
61880;BME280;47817;52.798;27.544;2022-10-31T11:39:01;1027.3;;;11.6;46.9
61880;BME280;47817;52.798;27.544;2022-10-31T11:44:37;1027.3;;;11.6;45.6
61880;BME280;47817;52.798;27.544;2022-10-31T11:49:36;1027.2;;;11.6;44.9
61880;BME280;47817;52.798;27.544;2022-10-31T11:53:50;1027.3;;;11.7;45
61880;BME280;47817;52.798;27.544;2022-10-31T11:59:17;1027.3;;;11.8;45.8
61880;BME280;47817;52.798;27.544;2022-10-31T12:04:29;1027.4;;;11.9;47.8
61880;BME280;47817;52.798;27.544;2022-10-31T12:09:26;1027.4;;;12;48.2
61880;BME280;47817;52.798;27.544;2022-10-31T12:14:14;1027.4;;;12.2;47.8
61880;BME280;47817;52.798;27.544;2022-10-31T12:18:53;1027.4;;;12.1;47.3
61880;BME280;47817;52.798;27.544;2022-10-31T12:24:04;1027.5;;;12;47.4
61880;BME280;47817;52.798;27.544;2022-10-31T12:29:29;1027.6;;;11.8;47.2
61880;BME280;47817;52.798;27.544;2022-10-31T12:33:53;1027.6;;;11.8;47.8
61880;BME280;47817;52.798;27.544;2022-10-31T12:39:37;1027.6;;;12;47.8
61880;BME280;47817;52.798;27.544;2022-10-31T12:43:52;1027.6;;;12;47.9
61880;BME280;47817;52.798;27.544;2022-10-31T12:49:27;1027.6;;;12.1;48.2
61880;BME280;47817;52.798;27.544;2022-10-31T12:54:17;1027.6;;;11.9;48.8
61880;BME280;47817;52.798;27.544;2022-10-31T12:59:22;1027.7;;;11.9;49
61880;BME280;47817;52.798;27.544;2022-10-31T13:04:40;1027.7;;;11.9;49
61880;BME280;47817;52.798;27.544;2022-10-31T13:09:36;1027.7;;;11.8;48.8
61880;BME280;47817;52.798;27.544;2022-10-31T13:14:02;1027.6;;;11.8;49.5
61880;BME280;47817;52.798;27.544;2022-10-31T13:19:25;1027.7;;;11.8;49.6
61880;BME280;47817;52.798;27.544;2022-10-31T13:24:36;1027.7;;;11.8;49.2
61880;BME280;47817;52.798;27.544;2022-10-31T13:29:11;1027.6;;;11.8;49.7
61880;BME280;47817;52.798;27.544;2022-10-31T13:34:38;1027.6;;;11.8;49.6
61880;BME280;47817;52.798;27.544;2022-10-31T13:38:57;1027.7;;;11.8;49.6
61880;BME280;47817;52.798;27.544;2022-10-31T13:44:37;1027.6;;;11.8;49.8
61880;BME280;47817;52.798;27.544;2022-10-31T13:48:49;1027.7;;;11.8;50.5
61880;BME280;47817;52.798;27.544;2022-10-31T13:54:36;1027.7;;;12.7;49.3
61880;BME280;47817;52.798;27.544;2022-10-31T13:58:58;1027.7;;;13.8;47.3
61880;BME280;47817;52.798;27.544;2022-10-31T14:04:02;1027.6;;;14.7;45.6
61880;BME280;47817;52.798;27.544;2022-10-31T14:09:01;1027.7;;;15.1;44.1
61880;BME280;47817;52.798;27.544;2022-10-31T14:14:13;1027.6;;;15.3;43.9
61880;BME280;47817;52.798;27.544;2022-10-31T14:19:35;1027.7;;;15;44.2
61880;BME280;47817;52.798;27.544;2022-10-31T14:24:36;1027.7;;;13.7;46.6
61880;BME280;47817;52.798;27.544;2022-10-31T14:29:02;1027.7;;;12.2;49.7
61880;BME280;47817;52.798;27.544;2022-10-31T14:34:24;1027.8;;;11.2;52.2
61880;BME280;47817;52.798;27.544;2022-10-31T14:39:24;1027.8;;;10.5;54.1
61880;BME280;47817;52.798;27.544;2022-10-31T14:44:19;1027.9;;;10.1;55.6
61880;BME280;47817;52.798;27.544;2022-10-31T14:49:39;1027.8;;;9.7;57.5
61880;BME280;47817;52.798;27.544;2022-10-31T14:54:01;1027.8;;;9.4;58.7
61880;BME280;47817;52.798;27.544;2022-10-31T14:59:38;1027.8;;;9.2;59.6
61880;BME280;47817;52.798;27.544;2022-10-31T15:04:14;1027.8;;;9;60.8
61880;BME280;47817;52.798;27.544;2022-10-31T15:09:35;1027.8;;;8.8;61.7
61880;BME280;47817;52.798;27.544;2022-10-31T15:14:17;1027.9;;;8.6;62.5
61880;BME280;47817;52.798;27.544;2022-10-31T15:18:51;1027.9;;;8.5;62.8
61880;BME280;47817;52.798;27.544;2022-10-31T15:24:01;1028;;;8.4;63.3
61880;BME280;47817;52.798;27.544;2022-10-31T15:29:24;1027.9;;;8.3;64.1
61880;BME280;47817;52.798;27.544;2022-10-31T15:34:37;1028;;;8.2;64.9
61880;BME280;47817;52.798;27.544;2022-10-31T15:39:37;1028;;;8.1;65.5
61880;BME280;47817;52.798;27.544;2022-10-31T15:43:49;1028.1;;;8;66.4
61880;BME280;47817;52.798;27.544;2022-10-31T15:49:15;1028.1;;;7.9;67.1
61880;BME280;47817;52.798;27.544;2022-10-31T15:54:21;1028.1;;;7.8;67.5
61880;BME280;47817;52.798;27.544;2022-10-31T15:59:11;1028.1;;;7.7;68.1
61880;BME280;47817;52.798;27.544;2022-10-31T16:04:33;1028.1;;;7.7;68.8
61880;BME280;47817;52.798;27.544;2022-10-31T16:08:59;1028.1;;;7.6;69.1
61880;BME280;47817;52.798;27.544;2022-10-31T16:14:35;1028.2;;;7.5;69.5
61880;BME280;47817;52.798;27.544;2022-10-31T16:19:14;1028.2;;;7.4;69.9
61880;BME280;47817;52.798;27.544;2022-10-31T16:24:35;1028.2;;;7.3;70.2
61880;BME280;47817;52.798;27.544;2022-10-31T16:29:22;1028.2;;;7.3;70.5
61880;BME280;47817;52.798;27.544;2022-10-31T16:33:49;1028.3;;;7.1;70.7
61880;BME280;47817;52.798;27.544;2022-10-31T16:39:11;1028.3;;;7.1;71.1
61880;BME280;47817;52.798;27.544;2022-10-31T16:44:18;1028.4;;;7;71.4
61880;BME280;47817;52.798;27.544;2022-10-31T16:49:35;1028.5;;;7;71.5
61880;BME280;47817;52.798;27.544;2022-10-31T16:54:35;1028.5;;;7;71.5
61880;BME280;47817;52.798;27.544;2022-10-31T16:58:59;1028.5;;;6.9;71.4
61880;BME280;47817;52.798;27.544;2022-10-31T17:04:23;1028.5;;;6.9;71.5
61880;BME280;47817;52.798;27.544;2022-10-31T17:09:23;1028.5;;;6.8;71.6
61880;BME280;47817;52.798;27.544;2022-10-31T17:14:21;1028.5;;;6.8;71.6
61880;BME280;47817;52.798;27.544;2022-10-31T17:19:23;1028.6;;;6.8;71.7
61880;BME280;47817;52.798;27.544;2022-10-31T17:23:49;1028.6;;;6.7;71.7
61880;BME280;47817;52.798;27.544;2022-10-31T17:29:33;1028.6;;;6.7;71.9
61880;BME280;47817;52.798;27.544;2022-10-31T17:34:09;1028.7;;;6.6;71.8
61880;BME280;47817;52.798;27.544;2022-10-31T17:39:23;1028.8;;;6.6;71.9
61880;BME280;47817;52.798;27.544;2022-10-31T17:44:09;1028.9;;;6.6;71.9
61880;BME280;47817;52.798;27.544;2022-10-31T17:48:59;1028.9;;;6.5;72
61880;BME280;47817;52.798;27.544;2022-10-31T17:54:11;1028.9;;;6.5;72
61880;BME280;47817;52.798;27.544;2022-10-31T17:59:19;1029;;;6.4;72.1
61880;BME280;47817;52.798;27.544;2022-10-31T18:03:49;1029;;;6.4;72.2
61880;BME280;47817;52.798;27.544;2022-10-31T18:09:33;1029;;;6.3;72.3
61880;BME280;47817;52.798;27.544;2022-10-31T18:13:53;1029.1;;;6.3;72.3
61880;BME280;47817;52.798;27.544;2022-10-31T18:19:35;1029.1;;;6.3;72.4
61880;BME280;47817;52.798;27.544;2022-10-31T18:24:35;1029.1;;;6.2;72.4
61880;BME280;47817;52.798;27.544;2022-10-31T18:29:19;1029.2;;;6.2;72.9
61880;BME280;47817;52.798;27.544;2022-10-31T18:34:23;1029.2;;;6.3;72.6
61880;BME280;47817;52.798;27.544;2022-10-31T18:38:59;1029.2;;;6.3;72.3
61880;BME280;47817;52.798;27.544;2022-10-31T18:44:35;1029.3;;;6.3;72.6
61880;BME280;47817;52.798;27.544;2022-10-31T18:48:49;1029.4;;;6.3;72.5
61880;BME280;47817;52.798;27.544;2022-10-31T18:54:21;1029.5;;;6.2;72.8
61880;BME280;47817;52.798;27.544;2022-10-31T18:59:35;1029.5;;;6.2;72.8
61880;BME280;47817;52.798;27.544;2022-10-31T19:04:23;1029.5;;;6.2;73
61880;BME280;47817;52.798;27.544;2022-10-31T19:08:49;1029.5;;;6.2;72.6
61880;BME280;47817;52.798;27.544;2022-10-31T19:14:19;1029.5;;;6.1;72.7
61880;BME280;47817;52.798;27.544;2022-10-31T19:19:09;1029.5;;;6.2;72.6
61880;BME280;47817;52.798;27.544;2022-10-31T19:24:35;1029.6;;;6.2;72.5
61880;BME280;47817;52.798;27.544;2022-10-31T19:29:11;1029.5;;;6.2;72.5
61880;BME280;47817;52.798;27.544;2022-10-31T19:34:33;1029.6;;;6.2;72.6
61880;BME280;47817;52.798;27.544;2022-10-31T19:39:11;1029.7;;;6.2;72.5
61880;BME280;47817;52.798;27.544;2022-10-31T19:44:21;1029.7;;;6.2;72.5
61880;BME280;47817;52.798;27.544;2022-10-31T19:49:21;1029.7;;;6.2;72.6
61880;BME280;47817;52.798;27.544;2022-10-31T19:54:07;1029.7;;;6.2;72.5
61880;BME280;47817;52.798;27.544;2022-10-31T19:59:35;1029.7;;;6.2;72.7
61880;BME280;47817;52.798;27.544;2022-10-31T20:04:07;1029.7;;;6.2;73.2
61880;BME280;47817;52.798;27.544;2022-10-31T20:09:21;1029.7;;;6.3;72.8
61880;BME280;47817;52.798;27.544;2022-10-31T20:13:49;1029.7;;;6.3;72.7
61880;BME280;47817;52.798;27.544;2022-10-31T20:19:09;1029.7;;;6.3;72.6
61880;BME280;47817;52.798;27.544;2022-10-31T20:24:11;1029.7;;;6.4;72.5
61880;BME280;47817;52.798;27.544;2022-10-31T20:29:19;1029.7;;;6.4;72.3
61880;BME280;47817;52.798;27.544;2022-10-31T20:34:09;1029.7;;;6.3;72.3
61880;BME280;47817;52.798;27.544;2022-10-31T20:39:33;1029.7;;;6.3;72.4
61880;BME280;47817;52.798;27.544;2022-10-31T20:43:59;1029.8;;;6.3;72.4
61880;BME280;47817;52.798;27.544;2022-10-31T20:49:33;1029.8;;;6.2;72.6
61880;BME280;47817;52.798;27.544;2022-10-31T20:54:23;1029.8;;;6.1;72.9
61880;BME280;47817;52.798;27.544;2022-10-31T20:59:21;1029.8;;;6;73
61880;BME280;47817;52.798;27.544;2022-10-31T21:04:21;1029.9;;;5.9;73.4
61880;BME280;47817;52.798;27.544;2022-10-31T21:09:09;1029.8;;;5.9;73.4
61880;BME280;47817;52.798;27.544;2022-10-31T21:14:35;1029.8;;;5.8;73.5
61880;BME280;47817;52.798;27.544;2022-10-31T21:18:49;1029.7;;;5.8;73.7
61880;BME280;47817;52.798;27.544;2022-10-31T21:24:23;1029.7;;;5.8;74
61880;BME280;47817;52.798;27.544;2022-10-31T21:28:59;1029.7;;;5.7;74.2
61880;BME280;47817;52.798;27.544;2022-10-31T21:33:59;1029.7;;;5.7;74.2
61880;BME280;47817;52.798;27.544;2022-10-31T21:38:49;1029.8;;;5.7;74.2
61880;BME280;47817;52.798;27.544;2022-10-31T21:44:21;1029.9;;;5.5;74.5
61880;BME280;47817;52.798;27.544;2022-10-31T21:49:09;1029.9;;;5.4;74.6
61880;BME280;47817;52.798;27.544;2022-10-31T21:54:35;1029.9;;;5.4;74.7
61880;BME280;47817;52.798;27.544;2022-10-31T21:58:55;1029.9;;;5.4;74.7
61880;BME280;47817;52.798;27.544;2022-10-31T22:03:51;1029.8;;;5.4;74.8
61880;BME280;47817;52.798;27.544;2022-10-31T22:09:17;1029.8;;;5.3;75
61880;BME280;47817;52.798;27.544;2022-10-31T22:14:17;1029.8;;;5.3;75.2
61880;BME280;47817;52.798;27.544;2022-10-31T22:19:17;1029.9;;;5.2;75.8
61880;BME280;47817;52.798;27.544;2022-10-31T22:24:06;1029.9;;;5.2;76.1
61880;BME280;47817;52.798;27.544;2022-10-31T22:29:29;1029.8;;;5.2;76.4
61880;BME280;47817;52.798;27.544;2022-10-31T22:33:49;1029.8;;;5.3;76.3
61880;BME280;47817;52.798;27.544;2022-10-31T22:39:17;1029.8;;;5.3;76.3
61880;BME280;47817;52.798;27.544;2022-10-31T22:43:55;1029.9;;;5.4;76.2
61880;BME280;47817;52.798;27.544;2022-10-31T22:48:50;1029.9;;;5.4;75.9
61880;BME280;47817;52.798;27.544;2022-10-31T22:54:08;1029.9;;;5.5;76
61880;BME280;47817;52.798;27.544;2022-10-31T22:59:14;1029.8;;;5.5;75.8
61880;BME280;47817;52.798;27.544;2022-10-31T23:04:05;1029.8;;;5.5;75.6
61880;BME280;47817;52.798;27.544;2022-10-31T23:09:29;1029.8;;;5.5;75.6
61880;BME280;47817;52.798;27.544;2022-10-31T23:14:09;1029.9;;;5.6;75.5
61880;BME280;47817;52.798;27.544;2022-10-31T23:19:29;1029.9;;;5.6;75.4
61880;BME280;47817;52.798;27.544;2022-10-31T23:24:05;1029.9;;;5.6;75.4
61880;BME280;47817;52.798;27.544;2022-10-31T23:29:17;1029.9;;;5.6;75.4
61880;BME280;47817;52.798;27.544;2022-10-31T23:34:09;1029.9;;;5.6;75.3
61880;BME280;47817;52.798;27.544;2022-10-31T23:38:49;1029.9;;;5.6;75.4
61880;BME280;47817;52.798;27.544;2022-10-31T23:44:29;1029.8;;;5.5;75.5
61880;BME280;47817;52.798;27.544;2022-10-31T23:49:05;1029.8;;;5.5;75.8
61880;BME280;47817;52.798;27.544;2022-10-31T23:54:17;1029.8;;;5.4;76.1
61880;BME280;47817;52.798;27.544;2022-10-31T23:59:03;1029.8;;;5.4;76.5
